createdAt,value
2024-02-19T00:00:31.834Z,8.40
2024-02-19T00:02:34.617Z,8.40
2024-02-19T00:04:37.486Z,8.30
2024-02-19T00:06:40.417Z,8.20
2024-02-19T00:08:42.411Z,8.30
2024-02-19T00:10:46.532Z,8.30
2024-02-19T00:12:49.496Z,8.10
2024-02-19T00:14:52.266Z,8.10
2024-02-19T00:16:55.622Z,8.10
2024-02-19T00:18:58.409Z,8.10
2024-02-19T00:21:01.517Z,8.30
2024-02-19T00:23:04.433Z,8.10
2024-02-19T00:25:07.652Z,8.20
2024-02-19T00:27:11.750Z,8.10
2024-02-19T00:29:14.490Z,8.20
2024-02-19T00:31:18.279Z,8.10
2024-02-19T00:33:21.497Z,8.20
2024-02-19T00:35:24.409Z,8.20
2024-02-19T00:37:28.088Z,8.00
2024-02-19T00:39:30.817Z,8.00
2024-02-19T00:41:33.603Z,8.20
2024-02-19T00:43:37.992Z,8.20
2024-02-19T00:45:40.788Z,8.20
2024-02-19T00:47:43.712Z,8.20
2024-02-19T00:49:46.590Z,8.10
2024-02-19T00:51:49.469Z,8.30
2024-02-19T00:53:52.274Z,8.10
2024-02-19T00:55:55.034Z,8.30
2024-02-19T00:57:57.805Z,8.30
2024-02-19T01:00:01.898Z,8.20
2024-02-19T01:02:05.009Z,8.10
2024-02-19T01:04:07.107Z,8.10
2024-02-19T01:06:09.930Z,8.20
2024-02-19T01:08:12.707Z,8.30
2024-02-19T01:10:14.713Z,8.20
2024-02-19T01:12:17.644Z,8.10
2024-02-19T01:14:20.427Z,8.30
2024-02-19T01:16:24.593Z,8.20
2024-02-19T01:18:27.412Z,8.30
2024-02-19T01:20:29.209Z,8.20
2024-02-19T01:22:32.038Z,8.10
2024-02-19T01:24:34.845Z,8.30
2024-02-19T01:26:37.630Z,8.30
2024-02-19T01:28:40.385Z,8.10
2024-02-19T01:30:43.159Z,8.00
2024-02-19T01:32:47.306Z,8.10
2024-02-19T01:34:50.271Z,8.00
2024-02-19T01:36:53.115Z,8.10
2024-02-19T01:38:55.860Z,8.00
2024-02-19T01:40:58.643Z,7.70
2024-02-19T01:43:03.219Z,7.70
2024-02-19T01:45:08.292Z,7.60
2024-02-19T01:47:11.215Z,7.80
2024-02-19T01:49:15.407Z,7.70
2024-02-19T01:51:18.233Z,7.60
2024-02-19T01:53:20.960Z,7.80
2024-02-19T01:55:23.765Z,7.70
2024-02-19T01:57:26.510Z,7.50
2024-02-19T01:59:29.260Z,7.50
2024-02-19T02:01:32.038Z,7.50
2024-02-19T02:03:34.953Z,7.60
2024-02-19T02:05:39.110Z,7.50
2024-02-19T02:07:41.662Z,7.60
2024-02-19T02:09:44.411Z,7.60
2024-02-19T02:11:47.149Z,7.50
2024-02-19T02:13:49.874Z,7.50
2024-02-19T02:15:52.702Z,7.40
2024-02-19T02:17:55.595Z,7.50
2024-02-19T02:19:58.546Z,7.40
2024-02-19T02:22:02.732Z,7.60
2024-02-19T02:24:06.277Z,7.50
2024-02-19T02:26:09.023Z,7.40
2024-02-19T02:28:13.157Z,7.50
2024-02-19T02:30:16.244Z,7.50
2024-02-19T02:32:19.000Z,7.50
2024-02-19T02:34:21.954Z,7.40
2024-02-19T02:36:24.773Z,7.60
2024-02-19T02:38:27.513Z,7.50
2024-02-19T02:40:30.237Z,7.40
2024-02-19T02:42:33.019Z,7.50
2024-02-19T02:44:36.177Z,7.50
2024-02-19T02:46:38.922Z,7.40
2024-02-19T02:48:41.874Z,7.50
2024-02-19T02:50:44.668Z,7.50
2024-02-19T02:52:48.348Z,7.40
2024-02-19T02:54:51.114Z,7.50
2024-02-19T02:56:53.868Z,7.30
2024-02-19T02:58:56.606Z,7.30
2024-02-19T03:01:01.196Z,7.40
2024-02-19T03:03:03.117Z,7.50
2024-02-19T03:05:06.546Z,7.40
2024-02-19T03:07:09.421Z,7.40
2024-02-19T03:09:12.274Z,7.30
2024-02-19T03:11:15.045Z,7.30
2024-02-19T03:13:17.835Z,7.40
2024-02-19T03:15:20.644Z,7.40
2024-02-19T03:17:24.824Z,7.30
2024-02-19T03:19:27.917Z,7.20
2024-02-19T03:21:30.758Z,7.30
2024-02-19T03:23:33.533Z,7.20
2024-02-19T03:25:36.687Z,7.10
2024-02-19T03:27:39.865Z,7.10
2024-02-19T03:29:42.635Z,7.10
2024-02-19T03:31:45.632Z,7.00
2024-02-19T03:33:50.346Z,7.00
2024-02-19T03:35:54.103Z,7.00
2024-02-19T03:37:56.921Z,7.10
2024-02-19T03:39:59.708Z,7.10
2024-02-19T03:42:03.761Z,7.10
2024-02-19T03:44:06.619Z,7.10
2024-02-19T03:46:09.805Z,7.10
2024-02-19T03:48:12.799Z,7.00
2024-02-19T03:50:17.507Z,7.10
2024-02-19T03:52:20.710Z,7.00
2024-02-19T03:54:23.635Z,7.00
2024-02-19T03:56:26.444Z,7.10
2024-02-19T03:58:29.192Z,7.00
2024-02-19T04:00:31.871Z,7.10
2024-02-19T04:02:34.652Z,7.10
2024-02-19T04:04:37.480Z,7.10
2024-02-19T04:06:41.725Z,7.00
2024-02-19T04:08:43.584Z,7.10
2024-02-19T04:10:46.342Z,6.90
2024-02-19T04:12:49.105Z,6.90
2024-02-19T04:14:51.885Z,7.00
2024-02-19T04:16:54.622Z,7.00
2024-02-19T04:18:57.523Z,7.00
2024-02-19T04:21:00.398Z,6.90
2024-02-19T04:23:04.710Z,7.00
2024-02-19T04:25:07.677Z,6.90
2024-02-19T04:27:10.517Z,6.90
2024-02-19T04:29:13.359Z,7.00
2024-02-19T04:31:16.233Z,6.80
2024-02-19T04:33:19.233Z,7.00
2024-02-19T04:35:22.085Z,6.90
2024-02-19T04:37:24.975Z,6.90
2024-02-19T04:39:29.111Z,6.90
2024-02-19T04:41:31.885Z,7.00
2024-02-19T04:43:34.617Z,7.00
2024-02-19T04:45:37.469Z,6.90
2024-02-19T04:47:40.268Z,6.80
2024-02-19T04:49:42.923Z,6.90
2024-02-19T04:51:45.695Z,6.90
2024-02-19T04:53:48.453Z,7.00
2024-02-19T04:55:53.284Z,7.00
2024-02-19T04:57:56.070Z,7.00
2024-02-19T04:59:58.828Z,6.80
2024-02-19T05:02:01.939Z,7.00
2024-02-19T05:04:05.740Z,7.00
2024-02-19T05:06:08.863Z,7.00
2024-02-19T05:08:10.703Z,6.80
2024-02-19T05:10:14.257Z,7.00
2024-02-19T05:12:18.382Z,7.00
2024-02-19T05:14:21.345Z,7.00
2024-02-19T05:16:23.199Z,6.90
2024-02-19T05:18:26.088Z,6.80
2024-02-19T05:20:27.906Z,6.80
2024-02-19T05:22:30.715Z,6.80
2024-02-19T05:24:33.442Z,6.80
2024-02-19T05:26:36.220Z,6.80
2024-02-19T05:28:40.316Z,6.90
2024-02-19T05:30:43.072Z,7.00
2024-02-19T05:32:45.908Z,7.00
2024-02-19T05:34:48.745Z,6.90
2024-02-19T05:36:51.512Z,6.80
2024-02-19T05:38:53.357Z,7.00
2024-02-19T05:40:56.453Z,6.90
2024-02-19T05:42:59.272Z,7.10
2024-02-19T05:45:02.392Z,6.90
2024-02-19T05:47:05.563Z,7.10
2024-02-19T05:49:08.428Z,6.90
2024-02-19T05:51:12.605Z,7.00
2024-02-19T05:53:15.526Z,7.00
2024-02-19T05:55:17.427Z,7.00
2024-02-19T05:57:20.238Z,6.90
2024-02-19T05:59:22.985Z,6.90
2024-02-19T06:01:27.118Z,7.10
2024-02-19T06:03:28.953Z,7.10
2024-02-19T06:05:31.757Z,7.00
2024-02-19T06:07:35.126Z,7.10
2024-02-19T06:09:39.354Z,6.90
2024-02-19T06:11:45.812Z,7.10
2024-02-19T06:13:49.161Z,7.00
2024-02-19T06:15:51.916Z,6.90
2024-02-19T06:17:56.076Z,6.90
2024-02-19T06:19:58.946Z,7.00
2024-02-19T06:22:01.792Z,6.90
2024-02-19T06:24:04.782Z,7.20
2024-02-19T06:26:07.924Z,7.10
2024-02-19T06:28:10.669Z,7.00
2024-02-19T06:30:14.050Z,7.10
2024-02-19T06:32:15.833Z,7.00
2024-02-19T06:34:20.132Z,7.10
2024-02-19T06:36:23.297Z,7.00
2024-02-19T06:38:26.031Z,7.10
2024-02-19T06:40:28.944Z,7.10
2024-02-19T06:42:31.740Z,7.10
2024-02-19T06:44:34.500Z,7.00
2024-02-19T06:46:37.224Z,7.10
2024-02-19T06:48:41.027Z,7.00
2024-02-19T06:50:45.186Z,7.20
2024-02-19T06:52:47.486Z,7.00
2024-02-19T06:54:50.485Z,6.90
2024-02-19T06:56:53.198Z,7.00
2024-02-19T06:58:55.937Z,7.00
2024-02-19T07:00:58.783Z,7.10
2024-02-19T07:03:01.782Z,7.20
2024-02-19T07:05:06.629Z,7.20
2024-02-19T07:07:11.167Z,7.00
2024-02-19T07:09:13.984Z,7.20
2024-02-19T07:11:16.767Z,7.00
2024-02-19T07:13:19.560Z,7.00
2024-02-19T07:15:21.358Z,7.10
2024-02-19T07:17:24.163Z,7.30
2024-02-19T07:19:27.072Z,7.00
2024-02-19T07:21:29.841Z,7.10
2024-02-19T07:23:33.954Z,7.10
2024-02-19T07:25:36.722Z,7.30
2024-02-19T07:27:39.493Z,7.10
2024-02-19T07:29:42.593Z,7.20
2024-02-19T07:31:45.339Z,7.20
2024-02-19T07:33:48.339Z,7.30
2024-02-19T07:35:50.284Z,7.30
2024-02-19T07:37:53.044Z,7.40
2024-02-19T07:39:57.197Z,7.20
2024-02-19T07:42:01.175Z,7.30
2024-02-19T07:44:03.911Z,7.50
2024-02-19T07:46:06.693Z,7.30
2024-02-19T07:48:09.822Z,7.50
2024-02-19T07:50:12.679Z,7.60
2024-02-19T07:52:14.590Z,7.40
2024-02-19T07:54:17.409Z,7.60
2024-02-19T07:56:21.500Z,7.50
2024-02-19T07:58:24.321Z,7.40
2024-02-19T08:00:27.117Z,7.40
2024-02-19T08:02:30.039Z,7.60
2024-02-19T08:04:32.955Z,7.70
2024-02-19T08:06:35.808Z,7.50
2024-02-19T08:08:37.599Z,7.80
2024-02-19T08:10:40.338Z,7.60
2024-02-19T08:12:44.805Z,7.60
2024-02-19T08:14:47.821Z,7.80
2024-02-19T08:16:51.502Z,7.60
2024-02-19T08:18:54.658Z,7.80
2024-02-19T08:20:57.453Z,7.60
2024-02-19T08:23:00.354Z,7.80
2024-02-19T08:25:03.156Z,7.60
2024-02-19T08:27:06.593Z,7.60
2024-02-19T08:29:10.669Z,7.80
2024-02-19T08:31:13.431Z,7.70
2024-02-19T08:33:16.271Z,7.70
2024-02-19T08:35:19.427Z,7.90
2024-02-19T08:37:22.744Z,7.80
2024-02-19T08:39:24.599Z,7.80
2024-02-19T08:41:27.332Z,8.00
2024-02-19T08:43:30.158Z,8.00
2024-02-19T08:45:37.212Z,8.00
2024-02-19T08:47:40.532Z,8.00
2024-02-19T08:49:42.446Z,8.10
2024-02-19T08:51:45.309Z,8.10
2024-02-19T08:53:53.643Z,8.00
2024-02-19T08:55:59.219Z,8.00
2024-02-19T08:58:02.021Z,8.20
2024-02-19T09:00:05.638Z,8.20
2024-02-19T09:02:09.996Z,8.10
2024-02-19T09:04:12.916Z,8.30
2024-02-19T09:06:15.877Z,8.40
2024-02-19T09:08:19.219Z,8.30
2024-02-19T09:10:22.098Z,8.60
2024-02-19T09:12:25.693Z,9.00
2024-02-19T09:14:29.140Z,9.00
2024-02-19T09:16:32.650Z,9.00
2024-02-19T09:18:36.779Z,9.10
2024-02-19T09:20:38.584Z,9.20
2024-02-19T09:22:43.397Z,9.30
2024-02-19T09:24:48.951Z,9.30
2024-02-19T09:26:51.813Z,9.60
2024-02-19T09:28:54.550Z,9.60
2024-02-19T09:30:57.312Z,9.60
2024-02-19T09:32:59.164Z,9.70
2024-02-19T09:35:04.635Z,9.60
2024-02-19T09:37:07.570Z,9.90
2024-02-19T09:39:10.729Z,10.30
2024-02-19T09:41:13.468Z,10.70
2024-02-19T09:43:16.299Z,11.60
2024-02-19T09:45:20.460Z,12.10
2024-02-19T09:47:23.279Z,12.80
2024-02-19T09:49:29.011Z,13.40
2024-02-19T09:51:40.562Z,13.90
2024-02-19T09:53:43.990Z,13.70
2024-02-19T09:55:46.903Z,13.20
2024-02-19T09:57:49.675Z,13.60
2024-02-19T09:59:52.447Z,14.10
2024-02-19T10:01:55.330Z,14.30
2024-02-19T10:03:58.566Z,14.30
2024-02-19T10:06:03.474Z,14.50
2024-02-19T10:08:13.978Z,14.00
2024-02-19T10:10:16.842Z,13.80
2024-02-19T10:12:19.871Z,13.40
2024-02-19T10:14:22.687Z,13.60
2024-02-19T10:16:25.523Z,13.60
2024-02-19T10:18:28.390Z,12.90
2024-02-19T10:20:31.225Z,12.40
2024-02-19T10:22:34.453Z,11.90
2024-02-19T10:24:38.537Z,11.60
2024-02-19T10:26:41.462Z,11.60
2024-02-19T10:28:44.887Z,11.60
2024-02-19T10:30:47.653Z,11.70
2024-02-19T10:32:50.429Z,12.00
2024-02-19T10:34:53.311Z,12.20
2024-02-19T10:36:56.122Z,13.10
2024-02-19T10:38:59.450Z,13.10
2024-02-19T10:41:03.613Z,12.80
2024-02-19T10:43:06.611Z,12.60
2024-02-19T10:45:10.528Z,12.60
2024-02-19T10:47:13.281Z,13.20
2024-02-19T10:49:20.616Z,12.70
2024-02-19T10:51:23.429Z,12.50
2024-02-19T10:53:29.820Z,13.40
2024-02-19T10:55:41.263Z,12.80
2024-02-19T10:57:54.627Z,12.40
2024-02-19T11:00:08.131Z,12.20
2024-02-19T11:02:12.600Z,11.80
2024-02-19T11:04:24.399Z,11.40
2024-02-19T11:06:27.332Z,11.10
2024-02-19T11:08:35.695Z,10.90
2024-02-19T11:10:40.819Z,10.70
2024-02-19T11:12:43.864Z,10.70
2024-02-19T11:14:52.066Z,10.70
2024-02-19T11:16:55.266Z,10.90
2024-02-19T11:19:01.026Z,10.90
2024-02-19T11:21:05.276Z,10.80
2024-02-19T11:23:08.051Z,10.70
2024-02-19T11:25:11.708Z,10.70
2024-02-19T11:27:14.536Z,10.60
2024-02-19T11:29:18.707Z,10.50
2024-02-19T11:31:22.905Z,10.40
2024-02-19T11:33:25.762Z,10.30
2024-02-19T11:35:28.598Z,10.30
2024-02-19T11:37:31.511Z,10.20
2024-02-19T11:39:34.717Z,10.10
2024-02-19T11:41:38.067Z,10.00
2024-02-19T11:43:40.789Z,10.00
2024-02-19T11:45:43.684Z,10.10
2024-02-19T11:47:47.784Z,10.00
2024-02-19T11:49:50.676Z,10.10
2024-02-19T11:52:01.519Z,10.30
2024-02-19T11:54:11.650Z,10.40
2024-02-19T11:56:19.129Z,10.30
2024-02-19T11:58:22.577Z,10.50
2024-02-19T12:00:25.702Z,10.70
2024-02-19T12:02:28.865Z,11.20
2024-02-19T12:04:35.667Z,11.10
2024-02-19T12:06:38.541Z,11.10
2024-02-19T12:08:40.518Z,11.00
2024-02-19T12:10:43.371Z,11.10
2024-02-19T12:12:46.204Z,11.40
2024-02-19T12:14:47.995Z,12.00
2024-02-19T12:16:51.290Z,11.60
2024-02-19T12:18:54.125Z,11.60
2024-02-19T12:20:58.236Z,11.80
2024-02-19T12:23:00.992Z,11.60
2024-02-19T12:25:03.849Z,11.60
2024-02-19T12:27:06.721Z,11.50
2024-02-19T12:29:09.590Z,11.30
2024-02-19T12:31:12.885Z,11.10
2024-02-19T12:33:15.792Z,10.80
2024-02-19T12:35:20.889Z,10.80
2024-02-19T12:37:25.189Z,10.90
2024-02-19T12:39:27.619Z,10.70
2024-02-19T12:41:30.738Z,10.60
2024-02-19T12:43:33.517Z,10.60
2024-02-19T12:45:37.415Z,10.60
2024-02-19T12:47:40.296Z,10.50
2024-02-19T12:49:43.201Z,10.60
2024-02-19T12:51:47.143Z,10.60
2024-02-19T12:53:51.269Z,10.70
2024-02-19T12:55:54.028Z,10.80
2024-02-19T12:57:57.341Z,10.90
2024-02-19T13:00:02.183Z,10.90
2024-02-19T13:02:05.253Z,10.90
2024-02-19T13:04:08.200Z,10.90
2024-02-19T13:06:15.673Z,10.90
2024-02-19T13:08:18.715Z,10.80
2024-02-19T13:10:22.880Z,10.70
2024-02-19T13:12:24.945Z,10.80
2024-02-19T13:14:27.710Z,10.70
2024-02-19T13:16:29.729Z,10.70
2024-02-19T13:18:33.128Z,10.80
2024-02-19T13:20:35.925Z,10.70
2024-02-19T13:22:38.846Z,10.90
2024-02-19T13:24:41.654Z,11.00
2024-02-19T13:26:45.835Z,10.90
2024-02-19T13:28:48.605Z,10.80
2024-02-19T13:30:51.476Z,10.90
2024-02-19T13:32:54.268Z,11.00
2024-02-19T13:34:57.114Z,10.90
2024-02-19T13:37:00.478Z,10.80
2024-02-19T13:39:03.900Z,10.70
2024-02-19T13:41:07.551Z,10.70
2024-02-19T13:43:12.067Z,10.60
2024-02-19T13:45:15.196Z,10.60
2024-02-19T13:47:17.949Z,10.50
2024-02-19T13:49:21.493Z,10.50
2024-02-19T13:51:24.344Z,10.50
2024-02-19T13:53:27.510Z,10.50
2024-02-19T13:55:30.481Z,10.40
2024-02-19T13:57:33.242Z,10.40
2024-02-19T13:59:37.312Z,10.40
2024-02-19T14:01:42.404Z,10.30
2024-02-19T14:03:48.858Z,10.30
2024-02-19T14:05:51.793Z,10.20
2024-02-19T14:07:54.604Z,10.20
2024-02-19T14:09:57.371Z,10.20
2024-02-19T14:12:00.116Z,10.10
2024-02-19T14:14:03.783Z,10.20
2024-02-19T14:16:08.575Z,10.10
2024-02-19T14:18:11.452Z,10.20
2024-02-19T14:20:14.376Z,10.30
2024-02-19T14:22:17.202Z,10.40
2024-02-19T14:24:20.085Z,10.40
2024-02-19T14:26:24.708Z,10.50
2024-02-19T14:28:26.541Z,10.50
2024-02-19T14:30:29.300Z,10.60
2024-02-19T14:32:33.395Z,10.50
2024-02-19T14:34:36.218Z,10.50
2024-02-19T14:36:39.205Z,10.40
2024-02-19T14:38:42.208Z,10.40
2024-02-19T14:40:45.103Z,10.40
2024-02-19T14:42:48.775Z,10.30
2024-02-19T14:44:52.674Z,10.30
2024-02-19T14:47:02.226Z,10.20
2024-02-19T14:49:12.347Z,10.30
2024-02-19T14:51:18.785Z,10.40
2024-02-19T14:53:22.809Z,10.60
2024-02-19T14:55:25.859Z,10.60
2024-02-19T14:57:30.059Z,10.70
2024-02-19T14:59:31.836Z,10.80
2024-02-19T15:01:34.879Z,10.80
2024-02-19T15:03:37.741Z,10.80
2024-02-19T15:05:41.883Z,10.80
2024-02-19T15:07:46.277Z,10.70
2024-02-19T15:09:49.305Z,10.70
2024-02-19T15:11:52.051Z,10.70
2024-02-19T15:13:53.948Z,10.70
2024-02-19T15:15:56.800Z,10.60
2024-02-19T15:17:59.635Z,10.60
2024-02-19T15:20:01.596Z,10.50
2024-02-19T15:22:05.842Z,10.50
2024-02-19T15:24:09.819Z,10.40
2024-02-19T15:26:13.620Z,10.40
2024-02-19T15:28:16.695Z,10.40
2024-02-19T15:30:20.605Z,10.40
2024-02-19T15:32:24.177Z,10.40
2024-02-19T15:34:27.033Z,10.30
2024-02-19T15:36:29.819Z,10.30
2024-02-19T15:38:33.888Z,10.30
2024-02-19T15:40:36.709Z,10.30
2024-02-19T15:42:39.633Z,10.30
2024-02-19T15:44:44.038Z,10.30
2024-02-19T15:46:46.819Z,10.30
2024-02-19T15:48:49.984Z,10.40
2024-02-19T15:50:54.072Z,10.30
2024-02-19T15:53:01.963Z,10.30
2024-02-19T15:55:11.962Z,10.30
2024-02-19T15:57:14.768Z,10.30
2024-02-19T15:59:17.600Z,10.30
2024-02-19T16:01:20.475Z,10.30
2024-02-19T16:03:23.241Z,10.20
2024-02-19T16:05:27.724Z,10.20
2024-02-19T16:07:30.595Z,10.20
2024-02-19T16:09:33.401Z,10.20
2024-02-19T16:11:37.887Z,10.20
2024-02-19T16:13:40.574Z,10.20
2024-02-19T16:15:43.451Z,10.20
2024-02-19T16:17:46.638Z,10.10
2024-02-19T16:19:49.469Z,10.10
2024-02-19T16:21:52.291Z,10.10
2024-02-19T16:23:55.046Z,10.10
2024-02-19T16:25:56.895Z,10.10
2024-02-19T16:28:01.041Z,10.10
2024-02-19T16:30:07.202Z,10.00
2024-02-19T16:32:12.789Z,10.00
2024-02-19T16:34:14.669Z,9.90
2024-02-19T16:36:17.957Z,9.90
2024-02-19T16:38:19.824Z,9.80
2024-02-19T16:40:22.667Z,9.70
2024-02-19T16:42:25.438Z,9.70
2024-02-19T16:44:30.341Z,9.60
2024-02-19T16:46:33.136Z,9.60
2024-02-19T16:48:40.188Z,9.60
2024-02-19T16:50:43.522Z,9.50
2024-02-19T16:52:47.247Z,9.50
2024-02-19T16:54:50.014Z,9.50
2024-02-19T16:56:53.905Z,9.40
2024-02-19T16:58:56.678Z,9.40
2024-02-19T17:01:03.199Z,9.50
2024-02-19T17:03:06.528Z,9.40
2024-02-19T17:05:10.239Z,9.40
2024-02-19T17:07:13.409Z,9.40
2024-02-19T17:09:16.317Z,9.40
2024-02-19T17:11:20.606Z,9.40
2024-02-19T17:13:22.634Z,9.40
2024-02-19T17:15:25.393Z,9.30
2024-02-19T17:17:29.567Z,9.40
2024-02-19T17:19:32.956Z,9.40
2024-02-19T17:21:37.583Z,9.40
2024-02-19T17:23:43.812Z,9.40
2024-02-19T17:25:47.332Z,9.30
2024-02-19T17:27:49.652Z,9.30
2024-02-19T17:29:52.406Z,9.30
2024-02-19T17:31:55.232Z,9.20
2024-02-19T17:33:59.422Z,9.30
2024-02-19T17:36:02.344Z,9.30
2024-02-19T17:38:05.387Z,9.30
2024-02-19T17:40:10.740Z,9.20
2024-02-19T17:42:13.573Z,9.30
2024-02-19T17:44:16.321Z,9.20
2024-02-19T17:46:19.177Z,9.20
2024-02-19T17:48:22.297Z,9.30
2024-02-19T17:50:26.712Z,9.30
2024-02-19T17:52:29.677Z,9.20
2024-02-19T17:54:32.512Z,9.30
2024-02-19T17:56:35.320Z,9.10
2024-02-19T17:58:38.137Z,9.30
2024-02-19T18:00:42.176Z,9.20
2024-02-19T18:02:45.916Z,9.20
2024-02-19T18:04:55.050Z,9.20
2024-02-19T18:07:01.476Z,9.20
2024-02-19T18:09:04.621Z,9.10
2024-02-19T18:11:08.647Z,9.20
2024-02-19T18:13:11.555Z,9.30
2024-02-19T18:15:14.805Z,9.30
2024-02-19T18:17:17.621Z,9.30
2024-02-19T18:19:20.497Z,9.30
2024-02-19T18:21:23.314Z,9.30
2024-02-19T18:23:29.673Z,9.20
2024-02-19T18:25:31.587Z,9.20
2024-02-19T18:27:34.359Z,9.20
2024-02-19T18:29:37.144Z,9.20
2024-02-19T18:31:40.058Z,9.30
2024-02-19T18:33:42.883Z,9.30
2024-02-19T18:35:46.357Z,9.20
2024-02-19T18:37:49.422Z,9.10
2024-02-19T18:39:53.541Z,9.10
2024-02-19T18:41:56.582Z,9.20
2024-02-19T18:44:02.372Z,9.10
2024-02-19T18:46:05.433Z,9.10
2024-02-19T18:48:08.817Z,9.20
2024-02-19T18:50:12.694Z,9.20
2024-02-19T18:52:16.845Z,9.20
2024-02-19T18:54:19.583Z,9.30
2024-02-19T18:56:23.692Z,9.30
2024-02-19T18:58:28.184Z,9.30
2024-02-19T19:00:32.030Z,9.20
2024-02-19T19:02:35.392Z,9.10
2024-02-19T19:04:38.384Z,9.10
2024-02-19T19:06:41.225Z,9.10
2024-02-19T19:08:43.959Z,9.10
2024-02-19T19:10:47.008Z,9.10
2024-02-19T19:12:51.257Z,9.00
2024-02-19T19:14:54.034Z,9.00
2024-02-19T19:16:57.171Z,9.00
2024-02-19T19:19:04.375Z,9.00
2024-02-19T19:21:07.537Z,9.00
2024-02-19T19:23:10.442Z,9.00
2024-02-19T19:25:13.593Z,9.10
2024-02-19T19:27:17.250Z,9.00
2024-02-19T19:29:21.974Z,8.90
2024-02-19T19:31:24.813Z,8.90
2024-02-19T19:33:27.784Z,9.00
2024-02-19T19:35:32.378Z,8.90
2024-02-19T19:37:35.238Z,8.90
2024-02-19T19:39:38.020Z,9.00
2024-02-19T19:41:40.759Z,8.90
2024-02-19T19:43:43.519Z,8.90
2024-02-19T19:45:47.748Z,9.00
2024-02-19T19:47:50.148Z,8.90
2024-02-19T19:49:53.173Z,8.90
2024-02-19T19:51:56.722Z,9.00
2024-02-19T19:53:59.724Z,8.90
2024-02-19T19:56:02.461Z,8.90
2024-02-19T19:58:11.369Z,9.00
2024-02-19T20:00:20.569Z,8.90
2024-02-19T20:02:24.162Z,9.00
2024-02-19T20:04:29.844Z,9.00
2024-02-19T20:06:34.000Z,9.00
2024-02-19T20:08:37.282Z,9.00
2024-02-19T20:10:40.502Z,8.90
2024-02-19T20:12:43.425Z,8.90
2024-02-19T20:14:46.143Z,8.90
2024-02-19T20:16:48.891Z,9.00
2024-02-19T20:18:53.031Z,9.00
2024-02-19T20:20:55.853Z,9.00
2024-02-19T20:22:57.677Z,8.90
2024-02-19T20:25:00.478Z,8.90
2024-02-19T20:27:04.019Z,9.00
2024-02-19T20:29:07.998Z,8.90
2024-02-19T20:31:11.037Z,9.00
2024-02-19T20:33:13.938Z,8.90
2024-02-19T20:35:18.184Z,8.90
2024-02-19T20:37:21.174Z,9.00
2024-02-19T20:39:23.996Z,9.00
2024-02-19T20:41:27.465Z,8.90
2024-02-19T20:43:29.487Z,9.00
2024-02-19T20:45:33.702Z,9.00
2024-02-19T20:47:40.491Z,8.90
2024-02-19T20:49:45.670Z,9.00
2024-02-19T20:51:49.887Z,8.90
2024-02-19T20:53:52.694Z,9.00
2024-02-19T20:55:56.600Z,9.00
2024-02-19T20:57:59.393Z,8.80
2024-02-19T21:00:03.603Z,8.80
2024-02-19T21:02:07.883Z,8.90
2024-02-19T21:04:10.370Z,8.90
2024-02-19T21:06:13.185Z,8.80
2024-02-19T21:08:17.457Z,8.90
2024-02-19T21:10:21.533Z,8.90
2024-02-19T21:12:24.505Z,8.90
2024-02-19T21:14:27.391Z,8.90
2024-02-19T21:16:30.209Z,8.80
2024-02-19T21:18:39.337Z,8.90
2024-02-19T21:20:49.508Z,8.80
2024-02-19T21:22:52.417Z,8.70
2024-02-19T21:24:57.691Z,8.70
2024-02-19T21:27:02.072Z,8.70
2024-02-19T21:29:03.892Z,8.70
2024-02-19T21:31:06.669Z,8.80
2024-02-19T21:33:09.559Z,8.70
2024-02-19T21:35:14.107Z,8.80
2024-02-19T21:37:17.563Z,8.70
2024-02-19T21:39:20.687Z,8.60
2024-02-19T21:41:24.884Z,8.70
2024-02-19T21:43:27.714Z,8.60
2024-02-19T21:45:30.510Z,8.60
2024-02-19T21:47:33.564Z,8.70
2024-02-19T21:49:37.923Z,8.70
2024-02-19T21:51:41.857Z,8.70
2024-02-19T21:53:44.641Z,8.60
2024-02-19T21:55:47.549Z,8.60
2024-02-19T21:57:52.269Z,8.70
2024-02-19T21:59:55.011Z,8.70
2024-02-19T22:01:57.729Z,8.60
2024-02-19T22:04:02.141Z,8.60
2024-02-19T22:06:06.695Z,8.60
2024-02-19T22:08:09.461Z,8.70
2024-02-19T22:10:12.450Z,8.70
2024-02-19T22:12:15.349Z,8.70
2024-02-19T22:14:19.481Z,8.60
2024-02-19T22:16:22.858Z,8.50
2024-02-19T22:18:26.662Z,8.60
2024-02-19T22:20:30.680Z,8.60
2024-02-19T22:22:35.602Z,8.60
2024-02-19T22:24:39.864Z,8.60
2024-02-19T22:26:42.611Z,8.60
2024-02-19T22:28:45.383Z,8.60
2024-02-19T22:30:49.499Z,8.60
2024-02-19T22:32:52.346Z,8.60
2024-02-19T22:34:54.217Z,8.60
2024-02-19T22:36:59.107Z,8.60
2024-02-19T22:39:01.936Z,8.60
2024-02-19T22:41:04.903Z,8.50
2024-02-19T22:43:10.856Z,8.60
2024-02-19T22:45:13.965Z,8.60
2024-02-19T22:47:18.037Z,8.60
2024-02-19T22:49:20.873Z,8.60
2024-02-19T22:51:23.865Z,8.60
2024-02-19T22:53:26.618Z,8.60
2024-02-19T22:55:29.548Z,8.50
2024-02-19T22:57:31.851Z,8.50
2024-02-19T22:59:35.552Z,8.50
2024-02-19T23:01:38.350Z,8.60
2024-02-19T23:03:41.565Z,8.60
2024-02-19T23:05:44.432Z,8.50
2024-02-19T23:07:48.439Z,8.60
2024-02-19T23:09:51.239Z,8.50
2024-02-19T23:11:53.983Z,8.60
2024-02-19T23:13:56.758Z,8.60
2024-02-19T23:15:59.691Z,8.50
2024-02-19T23:18:03.577Z,8.60
2024-02-19T23:20:09.586Z,8.60
2024-02-19T23:22:12.478Z,8.50
2024-02-19T23:24:15.276Z,8.50
2024-02-19T23:26:18.097Z,8.50
2024-02-19T23:28:20.957Z,8.50
2024-02-19T23:30:23.862Z,8.50
2024-02-19T23:32:25.706Z,8.50
2024-02-19T23:34:28.573Z,8.40
2024-02-19T23:36:34.276Z,8.40
2024-02-19T23:38:37.055Z,8.40
2024-02-19T23:40:39.886Z,8.40
2024-02-19T23:42:43.167Z,8.40
2024-02-19T23:44:46.041Z,8.40
2024-02-19T23:46:48.786Z,8.40
2024-02-19T23:48:51.588Z,8.40
2024-02-19T23:50:55.309Z,8.40
2024-02-19T23:52:58.525Z,8.30
2024-02-19T23:55:01.600Z,8.30
2024-02-19T23:57:04.843Z,8.30
2024-02-19T23:59:07.762Z,8.40
